sensor_id;sensor_type;location;lat;lon;timestamp;P1;durP1;ratioP1;P2;durP2;ratioP2
21110;SDS011;10713;51.912;4.494;2024-02-21T00:00:49;8.60;;;1.92;;
21110;SDS011;10713;51.912;4.494;2024-02-21T00:03:15;6.25;;;1.50;;
21110;SDS011;10713;51.912;4.494;2024-02-21T00:05:40;5.03;;;1.48;;
21110;SDS011;10713;51.912;4.494;2024-02-21T00:08:06;8.25;;;1.55;;
21110;SDS011;10713;51.912;4.494;2024-02-21T00:10:31;7.15;;;1.42;;
21110;SDS011;10713;51.912;4.494;2024-02-21T00:12:57;8.15;;;1.65;;
21110;SDS011;10713;51.912;4.494;2024-02-21T00:15:24;10.75;;;1.60;;
21110;SDS011;10713;51.912;4.494;2024-02-21T00:17:50;8.93;;;1.75;;
21110;SDS011;10713;51.912;4.494;2024-02-21T00:20:15;4.57;;;1.38;;
21110;SDS011;10713;51.912;4.494;2024-02-21T00:22:41;8.02;;;1.58;;
21110;SDS011;10713;51.912;4.494;2024-02-21T00:25:06;10.02;;;1.85;;
21110;SDS011;10713;51.912;4.494;2024-02-21T00:27:32;5.70;;;1.45;;
21110;SDS011;10713;51.912;4.494;2024-02-21T00:29:57;6.05;;;1.77;;
21110;SDS011;10713;51.912;4.494;2024-02-21T00:32:22;7.47;;;1.52;;
21110;SDS011;10713;51.912;4.494;2024-02-21T00:34:48;9.52;;;1.50;;
21110;SDS011;10713;51.912;4.494;2024-02-21T00:37:13;8.60;;;2.15;;
21110;SDS011;10713;51.912;4.494;2024-02-21T00:39:39;8.40;;;1.80;;
21110;SDS011;10713;51.912;4.494;2024-02-21T00:42:04;10.13;;;1.90;;
21110;SDS011;10713;51.912;4.494;2024-02-21T00:44:29;5.95;;;1.90;;
21110;SDS011;10713;51.912;4.494;2024-02-21T00:46:55;5.65;;;1.98;;
21110;SDS011;10713;51.912;4.494;2024-02-21T00:49:20;6.20;;;1.92;;
21110;SDS011;10713;51.912;4.494;2024-02-21T00:51:46;6.15;;;2.00;;
21110;SDS011;10713;51.912;4.494;2024-02-21T00:54:12;3.17;;;1.98;;
21110;SDS011;10713;51.912;4.494;2024-02-21T00:56:38;9.10;;;2.10;;
21110;SDS011;10713;51.912;4.494;2024-02-21T00:59:03;6.60;;;2.28;;
21110;SDS011;10713;51.912;4.494;2024-02-21T01:01:28;9.27;;;2.10;;
21110;SDS011;10713;51.912;4.494;2024-02-21T01:03:54;7.47;;;2.10;;
21110;SDS011;10713;51.912;4.494;2024-02-21T01:06:19;14.45;;;2.55;;
21110;SDS011;10713;51.912;4.494;2024-02-21T01:08:47;11.20;;;2.53;;
21110;SDS011;10713;51.912;4.494;2024-02-21T01:11:15;6.95;;;2.03;;
21110;SDS011;10713;51.912;4.494;2024-02-21T01:13:41;6.70;;;1.85;;
21110;SDS011;10713;51.912;4.494;2024-02-21T01:16:06;22.55;;;2.83;;
21110;SDS011;10713;51.912;4.494;2024-02-21T01:18:33;8.15;;;2.28;;
21110;SDS011;10713;51.912;4.494;2024-02-21T01:20:59;8.90;;;1.90;;
21110;SDS011;10713;51.912;4.494;2024-02-21T01:23:24;5.03;;;1.90;;
21110;SDS011;10713;51.912;4.494;2024-02-21T01:25:50;9.70;;;2.17;;
21110;SDS011;10713;51.912;4.494;2024-02-21T01:28:16;4.28;;;1.45;;
21110;SDS011;10713;51.912;4.494;2024-02-21T01:30:41;7.60;;;1.55;;
21110;SDS011;10713;51.912;4.494;2024-02-21T01:33:06;6.13;;;1.65;;
21110;SDS011;10713;51.912;4.494;2024-02-21T01:35:31;6.22;;;2.45;;
21110;SDS011;10713;51.912;4.494;2024-02-21T01:37:57;2.80;;;1.67;;
21110;SDS011;10713;51.912;4.494;2024-02-21T01:40:22;10.15;;;1.65;;
21110;SDS011;10713;51.912;4.494;2024-02-21T01:42:48;6.38;;;1.90;;
21110;SDS011;10713;51.912;4.494;2024-02-21T01:45:13;4.97;;;1.73;;
21110;SDS011;10713;51.912;4.494;2024-02-21T01:47:39;2.53;;;1.60;;
21110;SDS011;10713;51.912;4.494;2024-02-21T01:50:05;5.55;;;1.88;;
21110;SDS011;10713;51.912;4.494;2024-02-21T01:52:31;10.07;;;2.08;;
21110;SDS011;10713;51.912;4.494;2024-02-21T01:54:59;12.75;;;2.30;;
21110;SDS011;10713;51.912;4.494;2024-02-21T01:57:25;9.73;;;2.33;;
21110;SDS011;10713;51.912;4.494;2024-02-21T01:59:50;14.45;;;2.15;;
21110;SDS011;10713;51.912;4.494;2024-02-21T02:02:17;9.95;;;2.10;;
21110;SDS011;10713;51.912;4.494;2024-02-21T02:04:43;11.93;;;2.28;;
21110;SDS011;10713;51.912;4.494;2024-02-21T02:07:10;8.02;;;2.20;;
21110;SDS011;10713;51.912;4.494;2024-02-21T02:09:35;7.40;;;2.22;;
21110;SDS011;10713;51.912;4.494;2024-02-21T02:12:01;8.57;;;2.05;;
21110;SDS011;10713;51.912;4.494;2024-02-21T02:14:27;10.68;;;2.45;;
21110;SDS011;10713;51.912;4.494;2024-02-21T02:16:52;15.30;;;2.72;;
21110;SDS011;10713;51.912;4.494;2024-02-21T02:19:17;4.88;;;2.70;;
21110;SDS011;10713;51.912;4.494;2024-02-21T02:21:46;11.13;;;2.33;;
21110;SDS011;10713;51.912;4.494;2024-02-21T02:24:18;13.88;;;2.55;;
21110;SDS011;10713;51.912;4.494;2024-02-21T02:26:44;8.85;;;1.83;;
21110;SDS011;10713;51.912;4.494;2024-02-21T02:29:10;12.90;;;2.50;;
21110;SDS011;10713;51.912;4.494;2024-02-21T02:31:36;12.82;;;2.72;;
21110;SDS011;10713;51.912;4.494;2024-02-21T02:34:02;6.55;;;1.92;;
21110;SDS011;10713;51.912;4.494;2024-02-21T02:36:28;4.82;;;2.38;;
21110;SDS011;10713;51.912;4.494;2024-02-21T02:38:54;8.15;;;2.45;;
21110;SDS011;10713;51.912;4.494;2024-02-21T02:41:19;6.43;;;2.00;;
21110;SDS011;10713;51.912;4.494;2024-02-21T02:43:45;14.85;;;2.40;;
21110;SDS011;10713;51.912;4.494;2024-02-21T02:46:10;10.95;;;2.13;;
21110;SDS011;10713;51.912;4.494;2024-02-21T02:48:35;5.38;;;2.00;;
21110;SDS011;10713;51.912;4.494;2024-02-21T02:51:03;4.55;;;1.85;;
21110;SDS011;10713;51.912;4.494;2024-02-21T02:53:28;5.85;;;2.20;;
21110;SDS011;10713;51.912;4.494;2024-02-21T02:55:54;13.05;;;2.50;;
21110;SDS011;10713;51.912;4.494;2024-02-21T02:58:19;10.75;;;2.38;;
21110;SDS011;10713;51.912;4.494;2024-02-21T03:00:45;5.95;;;1.80;;
21110;SDS011;10713;51.912;4.494;2024-02-21T03:03:10;8.13;;;1.75;;
21110;SDS011;10713;51.912;4.494;2024-02-21T03:05:35;8.30;;;1.83;;
21110;SDS011;10713;51.912;4.494;2024-02-21T03:08:01;9.13;;;1.98;;
21110;SDS011;10713;51.912;4.494;2024-02-21T03:10:26;5.88;;;1.80;;
21110;SDS011;10713;51.912;4.494;2024-02-21T03:12:51;10.57;;;2.63;;
21110;SDS011;10713;51.912;4.494;2024-02-21T03:15:18;8.05;;;2.20;;
21110;SDS011;10713;51.912;4.494;2024-02-21T03:17:44;6.80;;;1.85;;
21110;SDS011;10713;51.912;4.494;2024-02-21T03:20:09;7.63;;;2.22;;
21110;SDS011;10713;51.912;4.494;2024-02-21T03:22:35;4.53;;;1.50;;
21110;SDS011;10713;51.912;4.494;2024-02-21T03:25:01;5.57;;;2.30;;
21110;SDS011;10713;51.912;4.494;2024-02-21T03:27:27;7.07;;;2.45;;
21110;SDS011;10713;51.912;4.494;2024-02-21T03:29:53;8.00;;;2.10;;
21110;SDS011;10713;51.912;4.494;2024-02-21T03:32:18;7.78;;;2.22;;
21110;SDS011;10713;51.912;4.494;2024-02-21T03:34:43;5.72;;;1.90;;
21110;SDS011;10713;51.912;4.494;2024-02-21T03:37:09;6.47;;;2.63;;
21110;SDS011;10713;51.912;4.494;2024-02-21T03:39:34;13.93;;;2.45;;
21110;SDS011;10713;51.912;4.494;2024-02-21T03:41:59;9.20;;;2.80;;
21110;SDS011;10713;51.912;4.494;2024-02-21T03:44:32;6.88;;;2.20;;
21110;SDS011;10713;51.912;4.494;2024-02-21T03:46:59;4.43;;;2.53;;
21110;SDS011;10713;51.912;4.494;2024-02-21T03:49:25;10.52;;;2.85;;
21110;SDS011;10713;51.912;4.494;2024-02-21T03:51:50;5.18;;;2.35;;
21110;SDS011;10713;51.912;4.494;2024-02-21T03:54:15;16.23;;;3.03;;
21110;SDS011;10713;51.912;4.494;2024-02-21T03:56:41;2.92;;;1.63;;
21110;SDS011;10713;51.912;4.494;2024-02-21T03:59:06;4.72;;;2.17;;
21110;SDS011;10713;51.912;4.494;2024-02-21T04:01:33;4.32;;;2.40;;
21110;SDS011;10713;51.912;4.494;2024-02-21T04:03:59;6.10;;;2.50;;
21110;SDS011;10713;51.912;4.494;2024-02-21T04:06:24;5.85;;;2.03;;
21110;SDS011;10713;51.912;4.494;2024-02-21T04:08:50;4.25;;;2.30;;
21110;SDS011;10713;51.912;4.494;2024-02-21T04:11:15;6.00;;;2.60;;
21110;SDS011;10713;51.912;4.494;2024-02-21T04:13:40;4.35;;;2.67;;
21110;SDS011;10713;51.912;4.494;2024-02-21T04:16:06;4.80;;;2.50;;
21110;SDS011;10713;51.912;4.494;2024-02-21T04:18:31;11.45;;;2.28;;
21110;SDS011;10713;51.912;4.494;2024-02-21T04:20:56;8.07;;;2.72;;
21110;SDS011;10713;51.912;4.494;2024-02-21T04:23:22;4.93;;;2.22;;
21110;SDS011;10713;51.912;4.494;2024-02-21T04:25:47;4.28;;;2.03;;
21110;SDS011;10713;51.912;4.494;2024-02-21T04:28:12;6.35;;;2.45;;
21110;SDS011;10713;51.912;4.494;2024-02-21T04:30:38;4.05;;;1.80;;
21110;SDS011;10713;51.912;4.494;2024-02-21T04:33:03;5.88;;;2.10;;
21110;SDS011;10713;51.912;4.494;2024-02-21T04:35:29;6.00;;;2.42;;
21110;SDS011;10713;51.912;4.494;2024-02-21T04:37:54;5.93;;;2.72;;
21110;SDS011;10713;51.912;4.494;2024-02-21T04:40:20;11.10;;;2.55;;
21110;SDS011;10713;51.912;4.494;2024-02-21T04:42:45;4.68;;;2.58;;
21110;SDS011;10713;51.912;4.494;2024-02-21T04:45:10;10.85;;;2.28;;
21110;SDS011;10713;51.912;4.494;2024-02-21T04:47:36;5.72;;;2.15;;
21110;SDS011;10713;51.912;4.494;2024-02-21T04:50:01;7.00;;;2.63;;
21110;SDS011;10713;51.912;4.494;2024-02-21T04:52:27;12.70;;;2.72;;
21110;SDS011;10713;51.912;4.494;2024-02-21T04:54:52;7.13;;;2.58;;
21110;SDS011;10713;51.912;4.494;2024-02-21T04:57:17;6.53;;;2.55;;
21110;SDS011;10713;51.912;4.494;2024-02-21T04:59:46;4.53;;;2.20;;
21110;SDS011;10713;51.912;4.494;2024-02-21T05:02:12;6.13;;;2.75;;
21110;SDS011;10713;51.912;4.494;2024-02-21T05:04:38;9.27;;;3.05;;
21110;SDS011;10713;51.912;4.494;2024-02-21T05:07:04;8.85;;;2.60;;
21110;SDS011;10713;51.912;4.494;2024-02-21T05:09:30;6.68;;;2.75;;
21110;SDS011;10713;51.912;4.494;2024-02-21T05:11:55;10.40;;;2.70;;
21110;SDS011;10713;51.912;4.494;2024-02-21T05:14:21;5.75;;;2.97;;
21110;SDS011;10713;51.912;4.494;2024-02-21T05:16:46;6.55;;;3.08;;
21110;SDS011;10713;51.912;4.494;2024-02-21T05:19:12;10.27;;;3.65;;
21110;SDS011;10713;51.912;4.494;2024-02-21T05:21:37;6.97;;;3.33;;
21110;SDS011;10713;51.912;4.494;2024-02-21T05:24:02;8.13;;;3.45;;
21110;SDS011;10713;51.912;4.494;2024-02-21T05:26:28;6.50;;;3.10;;
21110;SDS011;10713;51.912;4.494;2024-02-21T05:28:54;15.50;;;4.25;;
21110;SDS011;10713;51.912;4.494;2024-02-21T05:31:19;11.35;;;3.58;;
21110;SDS011;10713;51.912;4.494;2024-02-21T05:33:46;8.60;;;4.07;;
21110;SDS011;10713;51.912;4.494;2024-02-21T05:36:12;10.63;;;4.30;;
21110;SDS011;10713;51.912;4.494;2024-02-21T05:38:38;13.80;;;4.13;;
21110;SDS011;10713;51.912;4.494;2024-02-21T05:41:04;9.27;;;3.90;;
21110;SDS011;10713;51.912;4.494;2024-02-21T05:43:30;8.95;;;3.97;;
21110;SDS011;10713;51.912;4.494;2024-02-21T05:45:55;11.07;;;3.97;;
21110;SDS011;10713;51.912;4.494;2024-02-21T05:48:24;11.15;;;4.63;;
21110;SDS011;10713;51.912;4.494;2024-02-21T05:50:50;13.65;;;3.92;;
21110;SDS011;10713;51.912;4.494;2024-02-21T05:53:15;13.50;;;4.72;;
21110;SDS011;10713;51.912;4.494;2024-02-21T05:55:41;9.80;;;3.67;;
21110;SDS011;10713;51.912;4.494;2024-02-21T05:58:06;12.40;;;4.35;;
21110;SDS011;10713;51.912;4.494;2024-02-21T06:00:32;10.32;;;4.47;;
21110;SDS011;10713;51.912;4.494;2024-02-21T06:02:58;10.20;;;5.18;;
21110;SDS011;10713;51.912;4.494;2024-02-21T06:05:24;12.02;;;4.72;;
21110;SDS011;10713;51.912;4.494;2024-02-21T06:07:49;16.10;;;4.85;;
21110;SDS011;10713;51.912;4.494;2024-02-21T06:10:15;11.18;;;4.90;;
21110;SDS011;10713;51.912;4.494;2024-02-21T06:12:40;11.73;;;4.40;;
21110;SDS011;10713;51.912;4.494;2024-02-21T06:15:06;7.60;;;3.85;;
21110;SDS011;10713;51.912;4.494;2024-02-21T06:17:31;11.75;;;4.78;;
21110;SDS011;10713;51.912;4.494;2024-02-21T06:19:57;11.05;;;3.85;;
21110;SDS011;10713;51.912;4.494;2024-02-21T06:22:22;8.45;;;3.92;;
21110;SDS011;10713;51.912;4.494;2024-02-21T06:24:47;12.10;;;3.88;;
21110;SDS011;10713;51.912;4.494;2024-02-21T06:27:13;7.53;;;4.10;;
21110;SDS011;10713;51.912;4.494;2024-02-21T06:29:41;13.45;;;4.22;;
21110;SDS011;10713;51.912;4.494;2024-02-21T06:32:06;12.40;;;4.20;;
21110;SDS011;10713;51.912;4.494;2024-02-21T06:34:32;20.00;;;3.78;;
21110;SDS011;10713;51.912;4.494;2024-02-21T06:36:57;9.02;;;3.60;;
21110;SDS011;10713;51.912;4.494;2024-02-21T06:39:22;15.63;;;4.78;;
21110;SDS011;10713;51.912;4.494;2024-02-21T06:41:48;8.55;;;3.85;;
21110;SDS011;10713;51.912;4.494;2024-02-21T06:44:15;10.95;;;3.88;;
21110;SDS011;10713;51.912;4.494;2024-02-21T06:46:41;10.40;;;4.60;;
21110;SDS011;10713;51.912;4.494;2024-02-21T06:49:06;17.98;;;4.45;;
21110;SDS011;10713;51.912;4.494;2024-02-21T06:51:31;22.40;;;5.07;;
21110;SDS011;10713;51.912;4.494;2024-02-21T06:53:58;14.70;;;4.70;;
21110;SDS011;10713;51.912;4.494;2024-02-21T06:56:23;11.55;;;4.28;;
21110;SDS011;10713;51.912;4.494;2024-02-21T06:58:54;20.70;;;4.88;;
21110;SDS011;10713;51.912;4.494;2024-02-21T07:01:22;13.73;;;4.15;;
21110;SDS011;10713;51.912;4.494;2024-02-21T07:03:47;8.68;;;4.15;;
21110;SDS011;10713;51.912;4.494;2024-02-21T07:06:13;17.80;;;5.57;;
21110;SDS011;10713;51.912;4.494;2024-02-21T07:08:38;10.63;;;5.30;;
21110;SDS011;10713;51.912;4.494;2024-02-21T07:11:04;13.15;;;4.85;;
21110;SDS011;10713;51.912;4.494;2024-02-21T07:13:29;14.05;;;4.75;;
21110;SDS011;10713;51.912;4.494;2024-02-21T07:15:55;11.88;;;5.28;;
21110;SDS011;10713;51.912;4.494;2024-02-21T07:18:20;15.63;;;4.75;;
21110;SDS011;10713;51.912;4.494;2024-02-21T07:20:45;20.08;;;5.05;;
21110;SDS011;10713;51.912;4.494;2024-02-21T07:23:11;12.85;;;4.97;;
21110;SDS011;10713;51.912;4.494;2024-02-21T07:25:36;20.85;;;5.68;;
21110;SDS011;10713;51.912;4.494;2024-02-21T07:28:02;14.30;;;5.80;;
21110;SDS011;10713;51.912;4.494;2024-02-21T07:30:27;14.52;;;5.13;;
21110;SDS011;10713;51.912;4.494;2024-02-21T07:32:53;19.58;;;5.40;;
21110;SDS011;10713;51.912;4.494;2024-02-21T07:35:18;16.52;;;4.85;;
21110;SDS011;10713;51.912;4.494;2024-02-21T07:37:44;29.40;;;6.32;;
21110;SDS011;10713;51.912;4.494;2024-02-21T07:40:13;11.65;;;4.85;;
21110;SDS011;10713;51.912;4.494;2024-02-21T07:42:39;14.70;;;5.78;;
21110;SDS011;10713;51.912;4.494;2024-02-21T07:45:05;18.85;;;5.93;;
21110;SDS011;10713;51.912;4.494;2024-02-21T07:47:32;11.82;;;5.13;;
21110;SDS011;10713;51.912;4.494;2024-02-21T07:49:57;14.65;;;5.15;;
21110;SDS011;10713;51.912;4.494;2024-02-21T07:52:22;11.48;;;4.65;;
21110;SDS011;10713;51.912;4.494;2024-02-21T07:54:48;13.25;;;5.20;;
21110;SDS011;10713;51.912;4.494;2024-02-21T07:57:13;14.75;;;5.00;;
21110;SDS011;10713;51.912;4.494;2024-02-21T07:59:38;14.18;;;4.25;;
21110;SDS011;10713;51.912;4.494;2024-02-21T08:02:04;12.85;;;5.68;;
21110;SDS011;10713;51.912;4.494;2024-02-21T08:04:31;10.25;;;4.45;;
21110;SDS011;10713;51.912;4.494;2024-02-21T08:06:57;12.02;;;4.40;;
21110;SDS011;10713;51.912;4.494;2024-02-21T08:09:26;16.15;;;5.43;;
21110;SDS011;10713;51.912;4.494;2024-02-21T08:11:51;11.73;;;5.15;;
21110;SDS011;10713;51.912;4.494;2024-02-21T08:14:17;16.55;;;4.78;;
21110;SDS011;10713;51.912;4.494;2024-02-21T08:16:42;11.95;;;4.68;;
21110;SDS011;10713;51.912;4.494;2024-02-21T08:19:08;15.43;;;5.80;;
21110;SDS011;10713;51.912;4.494;2024-02-21T08:21:34;9.77;;;4.85;;
21110;SDS011;10713;51.912;4.494;2024-02-21T08:23:59;15.68;;;5.28;;
21110;SDS011;10713;51.912;4.494;2024-02-21T08:26:24;18.05;;;5.00;;
21110;SDS011;10713;51.912;4.494;2024-02-21T08:28:53;19.67;;;5.97;;
21110;SDS011;10713;51.912;4.494;2024-02-21T08:31:19;11.07;;;4.53;;
21110;SDS011;10713;51.912;4.494;2024-02-21T08:33:45;13.07;;;5.15;;
21110;SDS011;10713;51.912;4.494;2024-02-21T08:36:17;11.30;;;5.80;;
21110;SDS011;10713;51.912;4.494;2024-02-21T08:38:44;23.95;;;5.35;;
21110;SDS011;10713;51.912;4.494;2024-02-21T08:41:10;10.90;;;4.43;;
21110;SDS011;10713;51.912;4.494;2024-02-21T08:43:36;10.75;;;4.85;;
21110;SDS011;10713;51.912;4.494;2024-02-21T08:46:01;15.32;;;4.93;;
21110;SDS011;10713;51.912;4.494;2024-02-21T08:48:27;12.77;;;4.80;;
21110;SDS011;10713;51.912;4.494;2024-02-21T08:50:52;15.40;;;5.80;;
21110;SDS011;10713;51.912;4.494;2024-02-21T08:53:19;21.02;;;5.95;;
21110;SDS011;10713;51.912;4.494;2024-02-21T08:55:44;12.77;;;5.20;;
21110;SDS011;10713;51.912;4.494;2024-02-21T08:58:10;13.43;;;5.22;;
21110;SDS011;10713;51.912;4.494;2024-02-21T09:00:36;14.25;;;5.85;;
21110;SDS011;10713;51.912;4.494;2024-02-21T09:03:02;11.70;;;4.70;;
21110;SDS011;10713;51.912;4.494;2024-02-21T09:05:28;21.92;;;5.35;;
21110;SDS011;10713;51.912;4.494;2024-02-21T09:07:53;11.18;;;4.65;;
21110;SDS011;10713;51.912;4.494;2024-02-21T09:10:19;15.93;;;5.88;;
21110;SDS011;10713;51.912;4.494;2024-02-21T09:12:44;11.90;;;4.68;;
21110;SDS011;10713;51.912;4.494;2024-02-21T09:15:09;15.90;;;4.88;;
21110;SDS011;10713;51.912;4.494;2024-02-21T09:17:35;13.13;;;5.43;;
21110;SDS011;10713;51.912;4.494;2024-02-21T09:20:01;13.75;;;4.55;;
21110;SDS011;10713;51.912;4.494;2024-02-21T09:22:28;12.63;;;5.38;;
21110;SDS011;10713;51.912;4.494;2024-02-21T09:24:54;11.10;;;4.68;;
21110;SDS011;10713;51.912;4.494;2024-02-21T09:27:20;10.63;;;5.40;;
21110;SDS011;10713;51.912;4.494;2024-02-21T09:29:45;14.73;;;4.20;;
21110;SDS011;10713;51.912;4.494;2024-02-21T09:32:11;10.52;;;5.05;;
21110;SDS011;10713;51.912;4.494;2024-02-21T09:34:37;10.82;;;4.40;;
21110;SDS011;10713;51.912;4.494;2024-02-21T09:37:02;10.70;;;5.10;;
21110;SDS011;10713;51.912;4.494;2024-02-21T09:39:28;13.25;;;4.95;;
21110;SDS011;10713;51.912;4.494;2024-02-21T09:41:56;13.50;;;5.10;;
21110;SDS011;10713;51.912;4.494;2024-02-21T09:44:24;13.38;;;5.00;;
21110;SDS011;10713;51.912;4.494;2024-02-21T09:46:57;13.90;;;4.63;;
21110;SDS011;10713;51.912;4.494;2024-02-21T09:49:30;13.35;;;4.95;;
21110;SDS011;10713;51.912;4.494;2024-02-21T09:51:57;12.10;;;4.40;;
21110;SDS011;10713;51.912;4.494;2024-02-21T09:54:27;12.75;;;4.15;;
21110;SDS011;10713;51.912;4.494;2024-02-21T09:56:53;16.00;;;5.53;;
21110;SDS011;10713;51.912;4.494;2024-02-21T09:59:18;8.23;;;4.15;;
21110;SDS011;10713;51.912;4.494;2024-02-21T10:01:44;11.23;;;4.38;;
21110;SDS011;10713;51.912;4.494;2024-02-21T10:04:11;10.93;;;4.22;;
21110;SDS011;10713;51.912;4.494;2024-02-21T10:06:37;14.10;;;4.43;;
21110;SDS011;10713;51.912;4.494;2024-02-21T10:09:04;9.65;;;3.85;;
21110;SDS011;10713;51.912;4.494;2024-02-21T10:11:31;8.73;;;3.70;;
21110;SDS011;10713;51.912;4.494;2024-02-21T10:14:05;9.57;;;3.75;;
21110;SDS011;10713;51.912;4.494;2024-02-21T10:16:31;8.15;;;4.00;;
21110;SDS011;10713;51.912;4.494;2024-02-21T10:18:58;14.93;;;4.82;;
21110;SDS011;10713;51.912;4.494;2024-02-21T10:21:23;9.13;;;4.53;;
21110;SDS011;10713;51.912;4.494;2024-02-21T10:23:49;8.32;;;3.55;;
21110;SDS011;10713;51.912;4.494;2024-02-21T10:26:16;13.32;;;5.10;;
21110;SDS011;10713;51.912;4.494;2024-02-21T10:28:42;8.80;;;3.58;;
21110;SDS011;10713;51.912;4.494;2024-02-21T10:31:10;8.68;;;3.63;;
21110;SDS011;10713;51.912;4.494;2024-02-21T10:33:36;10.98;;;4.15;;
21110;SDS011;10713;51.912;4.494;2024-02-21T10:36:06;9.27;;;3.58;;
21110;SDS011;10713;51.912;4.494;2024-02-21T10:38:33;15.20;;;3.85;;
21110;SDS011;10713;51.912;4.494;2024-02-21T10:40:58;8.90;;;4.30;;
21110;SDS011;10713;51.912;4.494;2024-02-21T10:43:28;10.18;;;4.13;;
21110;SDS011;10713;51.912;4.494;2024-02-21T10:45:58;7.78;;;3.70;;
21110;SDS011;10713;51.912;4.494;2024-02-21T10:48:30;9.50;;;4.15;;
21110;SDS011;10713;51.912;4.494;2024-02-21T10:53:44;10.23;;;3.42;;
21110;SDS011;10713;51.912;4.494;2024-02-21T10:56:26;6.80;;;3.45;;
21110;SDS011;10713;51.912;4.494;2024-02-21T10:59:03;7.53;;;3.60;;
21110;SDS011;10713;51.912;4.494;2024-02-21T11:01:30;9.30;;;3.38;;
21110;SDS011;10713;51.912;4.494;2024-02-21T11:04:04;8.75;;;3.92;;
21110;SDS011;10713;51.912;4.494;2024-02-21T11:06:31;9.60;;;3.47;;
21110;SDS011;10713;51.912;4.494;2024-02-21T11:09:06;11.82;;;4.70;;
21110;SDS011;10713;51.912;4.494;2024-02-21T11:11:37;12.52;;;4.90;;
21110;SDS011;10713;51.912;4.494;2024-02-21T11:14:07;8.60;;;4.20;;
21110;SDS011;10713;51.912;4.494;2024-02-21T11:16:37;11.60;;;4.55;;
21110;SDS011;10713;51.912;4.494;2024-02-21T11:19:08;11.23;;;4.18;;
21110;SDS011;10713;51.912;4.494;2024-02-21T11:21:36;8.88;;;4.32;;
21110;SDS011;10713;51.912;4.494;2024-02-21T11:24:02;8.23;;;3.45;;
21110;SDS011;10713;51.912;4.494;2024-02-21T11:26:29;9.20;;;4.40;;
21110;SDS011;10713;51.912;4.494;2024-02-21T11:28:59;9.52;;;3.97;;
21110;SDS011;10713;51.912;4.494;2024-02-21T11:31:40;9.68;;;4.75;;
21110;SDS011;10713;51.912;4.494;2024-02-21T11:34:08;9.57;;;4.47;;
21110;SDS011;10713;51.912;4.494;2024-02-21T11:36:34;7.18;;;4.03;;
21110;SDS011;10713;51.912;4.494;2024-02-21T11:39:08;8.27;;;4.13;;
21110;SDS011;10713;51.912;4.494;2024-02-21T11:41:34;8.82;;;3.95;;
21110;SDS011;10713;51.912;4.494;2024-02-21T11:44:00;7.65;;;3.60;;
21110;SDS011;10713;51.912;4.494;2024-02-21T11:46:25;8.63;;;3.35;;
21110;SDS011;10713;51.912;4.494;2024-02-21T11:48:50;9.30;;;3.63;;
21110;SDS011;10713;51.912;4.494;2024-02-21T11:51:24;6.97;;;4.20;;
21110;SDS011;10713;51.912;4.494;2024-02-21T11:53:51;11.70;;;3.97;;
21110;SDS011;10713;51.912;4.494;2024-02-21T11:56:19;10.07;;;4.68;;
21110;SDS011;10713;51.912;4.494;2024-02-21T11:58:48;10.85;;;3.92;;
21110;SDS011;10713;51.912;4.494;2024-02-21T12:01:14;12.43;;;4.75;;
21110;SDS011;10713;51.912;4.494;2024-02-21T12:03:40;7.25;;;3.90;;
21110;SDS011;10713;51.912;4.494;2024-02-21T12:06:06;8.32;;;3.80;;
21110;SDS011;10713;51.912;4.494;2024-02-21T12:08:42;9.70;;;4.18;;
21110;SDS011;10713;51.912;4.494;2024-02-21T12:11:23;12.10;;;4.05;;
21110;SDS011;10713;51.912;4.494;2024-02-21T12:14:07;15.32;;;4.93;;
21110;SDS011;10713;51.912;4.494;2024-02-21T12:16:34;8.52;;;3.47;;
21110;SDS011;10713;51.912;4.494;2024-02-21T12:19:01;9.60;;;4.05;;
21110;SDS011;10713;51.912;4.494;2024-02-21T12:21:33;11.80;;;4.13;;
21110;SDS011;10713;51.912;4.494;2024-02-21T12:24:11;9.95;;;4.22;;
21110;SDS011;10713;51.912;4.494;2024-02-21T12:26:40;9.55;;;4.25;;
21110;SDS011;10713;51.912;4.494;2024-02-21T12:29:05;11.57;;;4.07;;
21110;SDS011;10713;51.912;4.494;2024-02-21T12:31:31;7.53;;;3.88;;
21110;SDS011;10713;51.912;4.494;2024-02-21T12:33:56;7.63;;;3.50;;
21110;SDS011;10713;51.912;4.494;2024-02-21T12:36:22;7.68;;;3.40;;
21110;SDS011;10713;51.912;4.494;2024-02-21T12:38:47;10.95;;;4.30;;
21110;SDS011;10713;51.912;4.494;2024-02-21T12:41:14;6.63;;;3.35;;
21110;SDS011;10713;51.912;4.494;2024-02-21T12:43:39;8.45;;;3.28;;
21110;SDS011;10713;51.912;4.494;2024-02-21T12:46:05;5.93;;;2.85;;
21110;SDS011;10713;51.912;4.494;2024-02-21T12:48:32;8.43;;;3.88;;
21110;SDS011;10713;51.912;4.494;2024-02-21T12:50:58;6.65;;;3.28;;
21110;SDS011;10713;51.912;4.494;2024-02-21T12:53:23;10.30;;;3.50;;
21110;SDS011;10713;51.912;4.494;2024-02-21T12:55:49;7.30;;;3.35;;
21110;SDS011;10713;51.912;4.494;2024-02-21T12:58:15;8.13;;;3.15;;
21110;SDS011;10713;51.912;4.494;2024-02-21T13:00:41;10.10;;;3.55;;
21110;SDS011;10713;51.912;4.494;2024-02-21T13:03:06;6.07;;;3.17;;
21110;SDS011;10713;51.912;4.494;2024-02-21T13:05:32;8.55;;;3.25;;
21110;SDS011;10713;51.912;4.494;2024-02-21T13:07:58;6.90;;;3.08;;
21110;SDS011;10713;51.912;4.494;2024-02-21T13:10:23;6.32;;;3.10;;
21110;SDS011;10713;51.912;4.494;2024-02-21T13:12:49;9.07;;;2.97;;
21110;SDS011;10713;51.912;4.494;2024-02-21T13:15:14;9.25;;;3.30;;
21110;SDS011;10713;51.912;4.494;2024-02-21T13:17:41;8.70;;;3.60;;
21110;SDS011;10713;51.912;4.494;2024-02-21T13:20:07;9.45;;;3.65;;
21110;SDS011;10713;51.912;4.494;2024-02-21T13:22:33;6.15;;;3.13;;
21110;SDS011;10713;51.912;4.494;2024-02-21T13:24:59;6.60;;;3.38;;
21110;SDS011;10713;51.912;4.494;2024-02-21T13:27:25;6.03;;;2.72;;
21110;SDS011;10713;51.912;4.494;2024-02-21T13:29:51;6.78;;;3.40;;
21110;SDS011;10713;51.912;4.494;2024-02-21T13:32:16;8.10;;;3.15;;
21110;SDS011;10713;51.912;4.494;2024-02-21T13:34:41;6.95;;;3.22;;
21110;SDS011;10713;51.912;4.494;2024-02-21T13:37:07;8.38;;;3.72;;
21110;SDS011;10713;51.912;4.494;2024-02-21T13:39:34;10.45;;;2.70;;
21110;SDS011;10713;51.912;4.494;2024-02-21T13:42:00;8.07;;;3.38;;
21110;SDS011;10713;51.912;4.494;2024-02-21T13:44:26;6.28;;;3.75;;
21110;SDS011;10713;51.912;4.494;2024-02-21T13:46:51;6.88;;;3.55;;
21110;SDS011;10713;51.912;4.494;2024-02-21T13:49:17;8.38;;;3.63;;
21110;SDS011;10713;51.912;4.494;2024-02-21T13:51:42;11.05;;;3.17;;
21110;SDS011;10713;51.912;4.494;2024-02-21T13:54:09;4.00;;;2.40;;
21110;SDS011;10713;51.912;4.494;2024-02-21T13:56:36;10.90;;;3.90;;
21110;SDS011;10713;51.912;4.494;2024-02-21T13:59:02;5.60;;;2.90;;
21110;SDS011;10713;51.912;4.494;2024-02-21T14:01:27;5.38;;;2.88;;
21110;SDS011;10713;51.912;4.494;2024-02-21T14:03:53;8.65;;;2.58;;
21110;SDS011;10713;51.912;4.494;2024-02-21T14:06:18;7.70;;;3.30;;
21110;SDS011;10713;51.912;4.494;2024-02-21T14:08:44;6.85;;;2.95;;
21110;SDS011;10713;51.912;4.494;2024-02-21T14:11:10;7.88;;;3.40;;
21110;SDS011;10713;51.912;4.494;2024-02-21T14:13:35;6.05;;;3.28;;
21110;SDS011;10713;51.912;4.494;2024-02-21T14:16:01;5.90;;;3.50;;
21110;SDS011;10713;51.912;4.494;2024-02-21T14:18:26;8.13;;;3.33;;
21110;SDS011;10713;51.912;4.494;2024-02-21T14:20:52;5.63;;;3.50;;
21110;SDS011;10713;51.912;4.494;2024-02-21T14:23:17;3.65;;;2.40;;
21110;SDS011;10713;51.912;4.494;2024-02-21T14:25:43;12.75;;;3.75;;
21110;SDS011;10713;51.912;4.494;2024-02-21T14:28:08;8.63;;;3.08;;
21110;SDS011;10713;51.912;4.494;2024-02-21T14:30:36;9.90;;;2.80;;
21110;SDS011;10713;51.912;4.494;2024-02-21T14:33:02;5.80;;;3.42;;
21110;SDS011;10713;51.912;4.494;2024-02-21T14:35:27;4.15;;;2.78;;
21110;SDS011;10713;51.912;4.494;2024-02-21T14:37:53;6.95;;;3.08;;